Time;durP1;ratioP1;P1;durP2;ratioP2;P2;SDS_P1;SDS_P2;PMS_P1;PMS_P2;Temp;Humidity;BMP_temperature;BMP_pressure;BME280_temperature;BME280_humidity;BME280_pressure;Samples;Min_cycle;Max_cycle;Signal;HPM_P1;HPM_P2
2023/06/02 00:00:20;;;;;;;327.92;155.57;;;;;;;19.86;80.88;99385.88;2495288;27;20479;-72
2023/06/02 00:00:38;;;;;;;326.40;162.10;;;;;;;19.83;81.10;99381.66;354308;27;898;-72
2023/06/02 00:00:49;;;;;;;326.45;161.07;;;;;;;19.82;80.76;99387.94;353062;28;843;-73
2023/06/02 00:01:02;;;;;;;325.98;162.38;;;;;;;19.83;81.16;99386.13;348832;28;1911;-73
2023/06/02 00:01:14;;;;;;;327.98;163.65;;;;;;;19.82;81.09;99384.44;347419;28;1006;-73
2023/06/02 00:01:28;;;;;;;328.88;162.23;;;;;;;19.82;81.29;99382.63;347305;28;1300;-73
2023/06/02 00:01:40;;;;;;;332.02;164.23;;;;;;;19.78;81.09;99390.97;347481;28;895;-73
2023/06/02 00:01:51;;;;;;;329.38;165.13;;;;;;;19.74;81.21;99387.75;348569;28;1662;-73
2023/06/02 00:02:03;;;;;;;329.77;165.32;;;;;;;19.74;81.25;99385.09;347404;28;942;-73
2023/06/02 00:02:14;;;;;;;327.20;164.70;;;;;;;19.76;81.09;99392.91;346522;28;1065;-73
2023/06/02 00:02:29;;;;;;;327.02;163.07;;;;;;;19.74;81.27;99384.25;350291;28;768;-73
2023/06/02 00:02:41;;;;;;;327.05;162.60;;;;;;;19.74;81.17;99389.53;350085;28;878;-73
2023/06/02 00:02:53;;;;;;;327.65;162.57;;;;;;;19.75;81.23;99385.94;348803;28;808;-73
2023/06/02 00:03:04;;;;;;;330.08;163.90;;;;;;;19.76;81.31;99384.97;347379;28;1299;-73
2023/06/02 00:03:15;;;;;;;330.52;163.45;;;;;;;19.75;81.53;99389.41;347525;28;761;-73
2023/06/02 00:03:30;;;;;;;331.77;163.00;;;;;;;19.76;81.05;99387.63;346194;28;940;-73
2023/06/02 00:03:42;;;;;;;330.92;162.60;;;;;;;19.77;81.40;99389.28;345618;28;3458;-73
2023/06/02 00:03:53;;;;;;;332.33;166.57;;;;;;;19.79;81.22;99390.00;345477;28;4404;-73
2023/06/02 00:04:04;;;;;;;333.70;169.37;;;;;;;19.75;81.35;99386.75;346130;28;5009;-73
2023/06/02 00:04:17;;;;;;;335.13;170.05;;;;;;;19.76;81.25;99382.31;347212;28;1006;-73
2023/06/02 00:04:29;;;;;;;332.60;166.52;;;;;;;19.76;81.59;99388.47;347104;28;5196;-73
2023/06/02 00:04:40;;;;;;;332.65;165.38;;;;;;;19.76;81.36;99380.50;346436;28;1654;-73
2023/06/02 00:04:51;;;;;;;328.08;164.65;;;;;;;19.74;81.49;99390.38;344608;28;1422;-73
2023/06/02 00:05:05;;;;;;;327.63;164.67;;;;;;;19.74;81.43;99386.91;345651;28;860;-73
2023/06/02 00:05:16;;;;;;;325.85;164.23;;;;;;;19.74;81.26;99390.38;346843;28;1085;-73
2023/06/02 00:05:26;;;;;;;328.98;167.10;;;;;;;19.72;80.99;99386.19;346032;28;880;-73
2023/06/02 00:05:40;;;;;;;330.23;168.68;;;;;;;19.72;81.04;99389.66;342361;28;1363;-73
2023/06/02 00:05:50;;;;;;;335.58;169.05;;;;;;;19.72;81.31;99384.38;341913;28;1316;-73
2023/06/02 00:06:01;;;;;;;336.48;166.70;;;;;;;19.73;81.52;99385.22;346280;28;1314;-73
2023/06/02 00:06:15;;;;;;;335.50;167.48;;;;;;;19.73;80.97;99385.22;346618;28;933;-73
2023/06/02 00:06:26;;;;;;;334.95;167.50;;;;;;;19.73;81.37;99387.88;345639;28;975;-73
2023/06/02 00:06:37;;;;;;;334.63;168.33;;;;;;;19.73;81.32;99390.53;342135;28;809;-73
2023/06/02 00:06:48;;;;;;;336.15;168.63;;;;;;;19.72;81.11;99386.19;346648;28;1920;-75
2023/06/02 00:07:03;;;;;;;335.27;166.23;;;;;;;19.73;80.93;99393.16;345682;28;1299;-74
2023/06/02 00:07:13;;;;;;;334.30;166.93;;;;;;;19.72;80.90;99388.84;345444;28;1170;-74
2023/06/02 00:07:25;;;;;;;332.90;167.43;;;;;;;19.71;81.20;99384.50;343379;28;1248;-74
2023/06/02 00:07:37;;;;;;;331.98;165.00;;;;;;;19.72;81.17;99386.19;343433;28;862;-74
2023/06/02 00:07:48;;;;;;;330.25;163.13;;;;;;;19.72;81.03;99383.53;344693;28;984;-74
2023/06/02 00:07:58;;;;;;;330.25;163.35;;;;;;;19.72;81.42;99380.88;344479;28;1272;-74
2023/06/02 00:08:09;;;;;;;329.50;163.63;;;;;;;19.73;81.17;99382.56;346157;28;1168;-74
2023/06/02 00:08:20;;;;;;;329.90;163.07;;;;;;;19.74;81.30;99384.25;341942;28;1324;-74
2023/06/02 00:08:31;;;;;;;328.08;161.15;;;;;;;19.74;81.00;99384.25;338452;29;1138;-74
2023/06/02 00:08:41;;;;;;;329.00;162.18;;;;;;;19.74;81.28;99387.75;339678;28;1686;-74
2023/06/02 00:08:52;;;;;;;327.80;162.80;;;;;;;19.75;80.97;99383.28;342691;28;1092;-74
2023/06/02 00:09:06;;;;;;;330.95;166.95;;;;;;;19.76;81.06;99384.97;339424;29;1701;-74
2023/06/02 00:09:16;;;;;;;330.25;165.90;;;;;;;19.74;81.21;99374.47;336111;29;1966;-74
2023/06/02 00:09:26;;;;;;;328.50;164.33;;;;;;;19.75;81.17;99385.94;337352;29;1087;-74
2023/06/02 00:09:41;;;;;;;332.50;166.23;;;;;;;19.74;81.10;99385.09;339478;29;952;-74
2023/06/02 00:09:51;;;;;;;327.63;163.32;;;;;;;19.74;81.00;99381.59;340782;29;975;-74
2023/06/02 00:10:02;;;;;;;324.30;160.57;;;;;;;19.73;80.81;99380.75;341419;28;1210;-74
2023/06/02 00:10:12;;;;;;;321.65;159.90;;;;;;;19.75;81.23;99388.59;335778;29;1516;-74
2023/06/02 00:10:23;;;;;;;325.57;163.37;;;;;;;19.75;81.20;99392.09;332911;29;1155;-74
2023/06/02 00:10:33;;;;;;;331.98;167.02;;;;;;;19.75;81.16;99386.75;334883;29;1727;-74
2023/06/02 00:10:43;;;;;;;336.50;169.93;;;;;;;19.75;81.30;99392.09;333153;29;1648;-74
2023/06/02 00:10:54;;;;;;;335.40;167.50;;;;;;;19.75;81.03;99386.75;330519;29;891;-74
2023/06/02 00:11:05;;;;;;;333.70;167.23;;;;;;;19.77;81.17;99389.28;324442;30;895;-74
2023/06/02 00:11:16;;;;;;;332.35;166.63;;;;;;;19.76;80.93;99388.47;319419;30;2807;-74
2023/06/02 00:11:26;;;;;;;333.40;167.13;;;;;;;19.77;80.91;99381.34;318078;30;1623;-74
2023/06/02 00:11:38;;;;;;;333.73;165.98;;;;;;;19.76;81.01;99382.31;318497;31;1242;-74
2023/06/02 00:11:48;;;;;;;334.05;164.98;;;;;;;19.75;80.75;99378.81;325061;30;1296;-74
2023/06/02 00:11:59;;;;;;;330.45;164.10;;;;;;;19.76;81.00;99384.97;322880;30;1419;-74
2023/06/02 00:12:13;;;;;;;329.07;163.67;;;;;;;19.74;80.90;99385.09;321989;30;1866;-74
2023/06/02 00:12:23;;;;;;;328.33;163.93;;;;;;;19.74;81.15;99387.75;320152;30;1418;-74
2023/06/02 00:12:34;;;;;;;328.80;164.03;;;;;;;19.75;81.09;99386.75;323686;30;2384;-74
2023/06/02 00:12:44;;;;;;;327.65;163.02;;;;;;;19.74;80.99;99385.09;323219;30;2241;-74
2023/06/02 00:12:54;;;;;;;326.60;162.43;;;;;;;19.74;81.07;99389.53;320325;30;2280;-74
2023/06/02 00:13:06;;;;;;;327.23;163.00;;;;;;;19.72;81.30;99387.03;319557;30;3466;-73
2023/06/02 00:13:17;;;;;;;330.30;165.90;;;;;;;19.71;81.43;99384.50;319262;30;2844;-74
2023/06/02 00:13:27;;;;;;;332.13;168.02;;;;;;;19.72;81.47;99386.19;318385;30;2844;-74
2023/06/02 00:13:38;;;;;;;336.08;168.48;;;;;;;19.70;81.18;99388.97;317067;31;3660;-74
2023/06/02 00:13:48;;;;;;;333.53;165.80;;;;;;;19.70;81.39;99385.47;317171;30;1815;-74
2023/06/02 00:13:59;;;;;;;335.05;164.60;;;;;;;19.69;81.30;99387.28;320188;30;1267;-74
2023/06/02 00:14:09;;;;;;;333.83;166.37;;;;;;;19.69;81.38;99386.44;321602;30;2237;-75
2023/06/02 00:14:21;;;;;;;335.30;167.57;;;;;;;19.68;81.64;99390.03;324433;30;804;-74
2023/06/02 00:14:32;;;;;;;332.42;166.85;;;;;;;19.67;81.41;99385.72;318380;30;2781;-74
2023/06/02 00:14:42;;;;;;;333.30;166.38;;;;;;;19.67;81.45;99383.06;317410;30;3057;-74
2023/06/02 00:14:53;;;;;;;337.83;166.70;;;;;;;19.68;81.89;99382.09;317124;31;1472;-73
2023/06/02 00:15:04;;;;;;;339.13;168.07;;;;;;;19.67;81.65;99383.06;315450;31;3035;-73
2023/06/02 00:15:14;;;;;;;338.05;166.82;;;;;;;19.70;81.38;99385.47;315483;31;3235;-73
2023/06/02 00:15:25;;;;;;;330.87;167.23;;;;;;;19.68;81.73;99390.03;316380;31;3724;-73
2023/06/02 00:15:37;;;;;;;329.97;166.87;;;;;;;19.68;81.65;99382.94;313906;31;1230;-73
2023/06/02 00:15:47;;;;;;;331.52;165.60;;;;;;;19.69;81.87;99389.09;316030;31;3391;-73
2023/06/02 00:15:58;;;;;;;331.30;164.53;;;;;;;19.69;81.80;99386.44;313486;31;2610;-73
2023/06/02 00:16:08;;;;;;;328.00;162.88;;;;;;;19.68;81.78;99388.25;313898;31;1606;-73
2023/06/02 00:16:19;;;;;;;326.73;163.77;;;;;;;19.68;81.59;99387.41;312339;31;2285;-73
2023/06/02 00:16:29;;;;;;;326.25;165.25;;;;;;;19.68;81.57;99384.75;309983;31;2882;-73
2023/06/02 00:16:44;;;;;;;329.77;168.57;;;;;;;19.68;81.97;99384.75;310157;31;3609;-73
2023/06/02 00:16:57;;;;;;;328.08;167.75;;;;;;;19.69;81.70;99389.91;309752;31;4645;-73
2023/06/02 00:17:08;;;;;;;328.33;165.63;;;;;;;19.69;81.57;99381.97;306923;32;1358;-73
2023/06/02 00:17:19;;;;;;;330.33;167.27;;;;;;;19.69;81.99;99386.44;305366;32;4791;-73
2023/06/02 00:17:34;;;;;;;331.23;167.23;;;;;;;19.70;81.88;99374.84;306484;31;4283;-74
2023/06/02 00:17:44;;;;;;;333.20;164.93;;;;;;;19.70;81.59;99382.81;306626;32;4801;-74
2023/06/02 00:17:54;;;;;;;334.93;166.83;;;;;;;19.70;81.96;99380.16;308010;31;4700;-73
2023/06/02 00:18:05;;;;;;;335.42;168.63;;;;;;;19.69;81.96;99381.13;306164;32;1238;-73
2023/06/02 00:18:16;;;;;;;333.27;169.93;;;;;;;19.69;81.86;99386.44;302660;32;3454;-73
2023/06/02 00:18:26;;;;;;;336.08;166.75;;;;;;;19.69;81.61;99386.44;300990;32;3261;-73
2023/06/02 00:18:37;;;;;;;333.25;165.80;;;;;;;19.68;81.65;99374.97;304245;32;932;-73
2023/06/02 00:18:48;;;;;;;331.87;165.70;;;;;;;19.70;81.43;99382.81;303434;32;4303;-74
2023/06/02 00:18:59;;;;;;;333.38;167.80;;;;;;;19.70;81.37;99377.50;303211;32;5488;-74
2023/06/02 00:19:11;;;;;;;335.23;169.10;;;;;;;19.69;81.40;99375.81;303150;32;6526;-74
2023/06/02 00:19:23;;;;;;;334.13;169.65;;;;;;;19.68;81.50;99379.44;301088;32;825;-73
2023/06/02 00:19:35;;;;;;;331.15;168.80;;;;;;;19.69;81.72;99378.47;302979;32;5693;-74
2023/06/02 00:19:47;;;;;;;332.92;169.82;;;;;;;19.69;81.70;99376.66;301877;32;5952;-72
2023/06/02 00:20:00;;;;;;;334.98;170.20;;;;;;;19.68;81.82;99377.63;301026;32;6425;-72
2023/06/02 00:20:11;;;;;;;334.70;168.50;;;;;;;19.66;81.63;99370.75;298441;32;6332;-72
2023/06/02 00:20:26;;;;;;;335.77;168.13;;;;;;;19.68;81.54;99374.13;298925;33;1356;-72
2023/06/02 00:20:36;;;;;;;332.85;168.25;;;;;;;19.67;81.72;99378.59;297869;33;1415;-72
2023/06/02 00:20:46;;;;;;;331.23;167.88;;;;;;;19.67;81.64;99375.94;297669;33;4888;-72
2023/06/02 00:20:58;;;;;;;335.30;171.10;;;;;;;19.67;81.49;99372.44;297175;33;5992;-72
2023/06/02 00:21:08;;;;;;;334.63;171.63;;;;;;;19.66;81.62;99371.59;296985;33;882;-72
2023/06/02 00:21:19;;;;;;;333.73;171.15;;;;;;;19.67;81.80;99367.13;291211;33;7359;-73
2023/06/02 00:21:29;;;;;;;332.80;168.93;;;;;;;19.67;81.76;99375.09;289878;33;8614;-73
2023/06/02 00:21:45;;;;;;;333.55;169.48;;;;;;;19.66;81.39;99376.06;291399;33;7699;-73
2023/06/02 00:22:00;;;;;;;331.33;168.77;;;;;;;19.66;81.54;99373.41;291741;33;8300;-73
2023/06/02 00:22:13;;;;;;;331.25;168.38;;;;;;;19.66;81.70;99370.75;289584;33;8515;-73
2023/06/02 00:22:29;;;;;;;330.00;169.13;;;;;;;19.66;81.71;99373.41;288527;34;3529;-73
2023/06/02 00:22:39;;;;;;;330.22;169.28;;;;;;;19.66;81.86;99370.75;286620;34;5346;-73
2023/06/02 00:22:51;;;;;;;332.90;167.37;;;;;;;19.65;81.84;99366.41;284581;34;903;-74
2023/06/02 00:23:04;;;;;;;331.10;167.07;;;;;;;19.67;81.38;99362.66;283326;34;9233;-74
2023/06/02 00:23:15;;;;;;;328.42;165.25;;;;;;;19.67;81.66;99372.44;281504;34;7862;-74
2023/06/02 00:23:28;;;;;;;329.70;165.68;;;;;;;19.68;81.82;99371.47;278612;35;9455;-74
2023/06/02 00:23:39;;;;;;;332.02;167.48;;;;;;;19.66;81.33;99370.75;279173;35;1431;-74
2023/06/02 00:23:49;;;;;;;332.98;169.25;;;;;;;19.66;81.60;99376.06;275899;35;11587;-74
2023/06/02 00:24:00;;;;;;;336.10;171.90;;;;;;;19.65;81.60;99369.06;275253;35;10547;-74
2023/06/02 00:25:47;;;;;;;327.29;165.73;;;;;;;19.64;81.78;99367.38;2499485;27;20788;-73
2023/06/02 00:25:58;;;;;;;331.47;177.90;;;;;;;19.64;81.79;99370.03;351412;28;1219;-74
2023/06/02 00:26:08;;;;;;;333.67;174.57;;;;;;;19.63;81.67;99368.34;348777;28;1290;-74
2023/06/02 00:26:19;;;;;;;333.90;171.13;;;;;;;19.63;82.06;99376.31;347392;28;1297;-73
2023/06/02 00:26:29;;;;;;;329.83;165.38;;;;;;;19.63;81.89;99366.53;348882;28;816;-73
2023/06/02 00:26:40;;;;;;;328.37;165.00;;;;;;;19.63;81.88;99371.00;347473;28;878;-73
2023/06/02 00:26:50;;;;;;;327.53;164.37;;;;;;;19.61;82.00;99373.78;347279;28;1568;-73
2023/06/02 00:27:00;;;;;;;330.70;165.45;;;;;;;19.60;81.92;99374.75;346161;28;902;-73
2023/06/02 00:27:11;;;;;;;334.10;166.20;;;;;;;19.60;82.12;99372.09;346063;28;894;-73
2023/06/02 00:27:21;;;;;;;336.70;167.38;;;;;;;19.60;82.04;99372.09;346551;28;1568;-73
2023/06/02 00:27:32;;;;;;;337.87;168.60;;;;;;;19.61;82.06;99373.78;348808;28;851;-73
2023/06/02 00:27:42;;;;;;;336.17;168.85;;;;;;;19.59;82.08;99365.94;349618;28;868;-73
2023/06/02 00:27:53;;;;;;;333.93;166.27;;;;;;;19.60;82.08;99372.94;348635;28;1249;-73
2023/06/02 00:28:03;;;;;;;333.65;165.63;;;;;;;19.60;82.15;99372.94;349794;28;1372;-73
2023/06/02 00:28:13;;;;;;;335.97;167.70;;;;;;;19.60;82.00;99372.94;350830;28;2019;-74
2023/06/02 00:28:24;;;;;;;337.55;171.23;;;;;;;19.62;82.02;99369.31;349986;28;1400;-74
2023/06/02 00:28:34;;;;;;;335.63;170.40;;;;;;;19.62;81.96;99370.16;348732;28;1203;-74
2023/06/02 00:28:45;;;;;;;332.33;168.77;;;;;;;19.61;81.95;99373.78;347259;28;1201;-74
2023/06/02 00:28:55;;;;;;;332.00;168.60;;;;;;;19.60;81.97;99372.94;345992;28;860;-74
2023/06/02 00:29:06;;;;;;;334.43;170.13;;;;;;;19.60;81.75;99366.78;345998;28;1411;-73
2023/06/02 00:29:16;;;;;;;334.45;169.30;;;;;;;19.59;81.65;99365.94;349165;28;1197;-73
2023/06/02 00:29:26;;;;;;;331.90;167.10;;;;;;;19.60;81.89;99367.63;351501;28;930;-73
2023/06/02 00:29:37;;;;;;;330.27;165.60;;;;;;;19.60;82.18;99372.94;350262;28;1181;-73
2023/06/02 00:29:47;;;;;;;329.93;166.70;;;;;;;19.60;82.04;99367.63;350228;28;1003;-74
2023/06/02 00:29:58;;;;;;;330.23;166.33;;;;;;;19.62;81.85;99369.31;346346;28;1177;-73
2023/06/02 00:30:08;;;;;;;331.20;167.87;;;;;;;19.62;82.02;99366.66;345972;28;1141;-73
2023/06/02 00:30:19;;;;;;;333.17;168.27;;;;;;;19.62;81.63;99371.97;344519;28;1678;-73
2023/06/02 00:30:30;;;;;;;334.80;168.53;;;;;;;19.60;81.75;99367.63;345365;28;1343;-73
2023/06/02 00:30:41;;;;;;;336.27;167.25;;;;;;;19.62;81.70;99367.50;341966;28;1522;-73
2023/06/02 00:30:51;;;;;;;337.25;168.02;;;;;;;19.63;81.87;99368.34;342046;28;891;-73
2023/06/02 00:31:02;;;;;;;336.45;168.35;;;;;;;19.61;81.89;99368.47;344643;28;1229;-73
2023/06/02 00:31:12;;;;;;;335.00;169.63;;;;;;;19.59;82.04;99368.59;345790;28;1109;-73
2023/06/02 00:31:22;;;;;;;333.20;169.03;;;;;;;19.59;81.93;99368.59;345829;28;1287;-74
2023/06/02 00:31:34;;;;;;;329.75;168.55;;;;;;;19.60;82.06;99367.63;346273;28;3548;-74
2023/06/02 00:31:44;;;;;;;329.67;169.77;;;;;;;19.59;81.81;99370.41;343518;28;3141;-75
2023/06/02 00:31:54;;;;;;;331.77;170.98;;;;;;;19.58;82.26;99369.56;341018;28;3002;-74
2023/06/02 00:32:07;;;;;;;336.93;172.60;;;;;;;19.57;81.85;99373.19;341597;28;1399;-74
2023/06/02 00:32:17;;;;;;;336.45;168.55;;;;;;;19.57;82.27;99364.38;340660;29;829;-74
2023/06/02 00:32:28;;;;;;;330.25;166.65;;;;;;;19.57;82.00;99364.38;341678;28;1411;-74
2023/06/02 00:32:38;;;;;;;329.70;165.93;;;;;;;19.56;82.18;99368.84;340954;28;886;-74
2023/06/02 00:32:48;;;;;;;329.42;167.70;;;;;;;19.57;82.12;99373.19;338053;29;1229;-74
2023/06/02 00:32:59;;;;;;;329.53;166.40;;;;;;;19.56;82.19;99366.19;339145;29;746;-74
2023/06/02 00:33:09;;;;;;;331.27;167.65;;;;;;;19.55;82.10;99367.16;339746;28;1346;-74
2023/06/02 00:33:20;;;;;;;332.90;168.03;;;;;;;19.55;82.12;99371.63;341923;28;1167;-74
2023/06/02 00:33:30;;;;;;;336.37;169.67;;;;;;;19.54;82.23;99367.28;341036;28;1257;-74
2023/06/02 00:33:41;;;;;;;334.95;169.05;;;;;;;19.53;82.39;99366.44;342388;28;1319;-74
2023/06/02 00:33:51;;;;;;;335.42;170.15;;;;;;;19.54;82.26;99361.97;337843;29;1349;-74
2023/06/02 00:34:02;;;;;;;338.50;172.50;;;;;;;19.53;82.49;99365.59;338063;29;918;-74
2023/06/02 00:34:12;;;;;;;338.83;172.95;;;;;;;19.51;82.39;99368.38;339317;29;1309;-74
2023/06/02 00:34:23;;;;;;;337.37;171.13;;;;;;;19.52;82.68;99364.75;338399;28;1645;-73
2023/06/02 00:34:33;;;;;;;336.40;170.90;;;;;;;19.51;82.61;99365.72;339271;29;1048;-73
2023/06/02 00:34:43;;;;;;;337.37;171.47;;;;;;;19.52;82.78;99366.56;340675;28;1912;-73
2023/06/02 00:34:54;;;;;;;338.83;170.97;;;;;;;19.53;82.88;99366.44;341002;28;956;-73
2023/06/02 00:35:05;;;;;;;335.13;168.57;;;;;;;19.54;82.63;99373.44;341211;28;1482;-73
2023/06/02 00:35:15;;;;;;;332.17;164.57;;;;;;;19.53;82.56;99371.75;337773;29;1360;-73
2023/06/02 00:35:26;;;;;;;331.17;163.53;;;;;;;19.52;82.51;99371.88;336597;29;969;-73
2023/06/02 00:35:36;;;;;;;331.08;163.68;;;;;;;19.50;82.66;99364.00;336634;29;888;-73
2023/06/02 00:35:46;;;;;;;331.70;164.83;;;;;;;19.47;82.45;99366.94;330464;29;920;-73
2023/06/02 00:35:57;;;;;;;331.60;165.43;;;;;;;19.46;82.39;99373.22;330781;29;1897;-73
2023/06/02 00:36:07;;;;;;;332.87;167.57;;;;;;;19.41;82.78;99372.72;328795;29;1877;-73
2023/06/02 00:36:18;;;;;;;334.77;169.47;;;;;;;19.38;82.68;99367.66;327982;30;799;-73
2023/06/02 00:36:28;;;;;;;335.63;169.43;;;;;;;19.35;83.39;99370.56;328826;29;2131;-73
2023/06/02 00:36:39;;;;;;;335.77;166.90;;;;;;;19.37;83.14;99376.59;328078;29;2340;-73
2023/06/02 00:36:49;;;;;;;334.15;166.55;;;;;;;19.36;83.04;99374.91;329228;29;1409;-73
2023/06/02 00:36:59;;;;;;;336.33;168.33;;;;;;;19.35;83.45;99375.88;326099;30;1737;-73
2023/06/02 00:37:10;;;;;;;336.73;168.35;;;;;;;19.34;83.29;99366.22;327147;30;968;-73
2023/06/02 00:37:20;;;;;;;336.27;167.57;;;;;;;19.34;83.30;99370.69;327931;30;792;-73
2023/06/02 00:37:31;;;;;;;338.48;167.77;;;;;;;19.34;83.29;99362.72;327893;30;1162;-73
2023/06/02 00:37:41;;;;;;;338.77;168.40;;;;;;;19.33;83.21;99367.19;327672;30;1775;-73
2023/06/02 00:37:52;;;;;;;340.17;167.38;;;;;;;19.33;83.61;99369.84;326273;30;2054;-73
2023/06/02 00:38:03;;;;;;;334.73;166.17;;;;;;;19.33;83.71;99371.66;327994;30;875;-74
2023/06/02 00:38:14;;;;;;;333.85;165.75;;;;;;;19.33;83.50;99364.53;326543;30;2354;-75
2023/06/02 00:38:24;;;;;;;331.50;165.02;;;;;;;19.34;83.63;99371.53;323356;30;2512;-74
2023/06/02 00:38:35;;;;;;;332.87;168.23;;;;;;;19.34;83.66;99365.38;321984;30;933;-74
2023/06/02 00:38:45;;;;;;;330.93;167.90;;;;;;;19.35;83.56;99373.22;316987;31;2744;-74
2023/06/02 00:38:56;;;;;;;331.33;168.75;;;;;;;19.35;83.82;99367.06;318945;30;2867;-74
2023/06/02 00:39:06;;;;;;;334.10;168.70;;;;;;;19.35;83.77;99367.91;320706;30;1307;-74
2023/06/02 00:39:17;;;;;;;334.00;167.25;;;;;;;19.37;83.38;99368.63;316297;31;905;-74
2023/06/02 00:39:27;;;;;;;332.37;166.30;;;;;;;19.36;83.68;99368.75;314020;31;1298;-74
2023/06/02 00:39:37;;;;;;;330.50;168.25;;;;;;;19.37;83.54;99367.78;312229;31;2073;-74
2023/06/02 00:39:48;;;;;;;332.87;169.10;;;;;;;19.37;83.66;99371.28;310592;31;1201;-74
2023/06/02 00:39:58;;;;;;;332.13;168.00;;;;;;;19.36;83.71;99366.94;314145;31;2649;-74
2023/06/02 00:40:09;;;;;;;333.67;167.82;;;;;;;19.38;83.62;99366.84;312959;31;2813;-74
2023/06/02 00:40:20;;;;;;;333.33;168.43;;;;;;;19.38;83.51;99367.66;311575;31;1294;-73
2023/06/02 00:40:31;;;;;;;334.73;169.83;;;;;;;19.39;83.33;99364.06;310837;31;3427;-73
2023/06/02 00:40:42;;;;;;;331.35;166.35;;;;;;;19.40;83.55;99368.41;308492;31;3401;-73
2023/06/02 00:40:52;;;;;;;331.38;167.20;;;;;;;19.41;82.99;99359.47;306094;31;3587;-73
2023/06/02 00:41:03;;;;;;;335.23;170.63;;;;;;;19.40;83.24;99368.41;308038;31;5186;-73
2023/06/02 00:41:13;;;;;;;341.43;171.77;;;;;;;19.39;83.14;99358.75;309133;31;5316;-73
2023/06/02 00:41:24;;;;;;;343.83;172.93;;;;;;;19.39;83.26;99365.88;310274;31;3245;-73
2023/06/02 00:41:34;;;;;;;341.17;171.67;;;;;;;19.40;83.40;99367.53;308376;32;782;-73
2023/06/02 00:41:45;;;;;;;334.67;169.23;;;;;;;19.39;83.28;99368.50;310986;31;2255;-73
2023/06/02 00:41:55;;;;;;;332.05;166.38;;;;;;;19.38;83.41;99366.84;308378;31;2858;-73
2023/06/02 00:42:06;;;;;;;333.47;165.73;;;;;;;19.39;83.54;99365.88;305080;32;1380;-73
2023/06/02 00:42:16;;;;;;;332.20;164.45;;;;;;;19.40;83.32;99362.25;302494;32;3833;-73
2023/06/02 00:42:27;;;;;;;333.40;165.10;;;;;;;19.38;83.56;99364.16;302473;32;4123;-73
2023/06/02 00:42:37;;;;;;;332.27;166.23;;;;;;;19.39;83.52;99364.06;301438;32;5182;-73
2023/06/02 00:42:48;;;;;;;332.47;166.63;;;;;;;19.37;83.36;99359.84;305275;32;1192;-73
2023/06/02 00:43:01;;;;;;;329.17;165.43;;;;;;;19.38;83.38;99366.84;301365;32;4380;-73
2023/06/02 00:43:11;;;;;;;328.00;164.30;;;;;;;19.38;83.51;99367.66;300228;32;4289;-73
2023/06/02 00:43:22;;;;;;;329.58;165.52;;;;;;;19.38;83.85;99366.84;301451;32;4664;-73
2023/06/02 00:43:32;;;;;;;332.77;168.07;;;;;;;19.37;83.44;99365.97;303964;32;1225;-73
2023/06/02 00:43:43;;;;;;;333.40;168.03;;;;;;;19.37;83.76;99365.13;300664;32;3402;-73
2023/06/02 00:43:53;;;;;;;332.88;167.93;;;;;;;19.37;83.75;99365.97;299845;32;3629;-73
2023/06/02 00:44:03;;;;;;;336.00;171.23;;;;;;;19.37;83.70;99360.69;300981;32;1194;-73
2023/06/02 00:44:14;;;;;;;336.80;171.93;;;;;;;19.36;83.60;99366.09;296244;33;4324;-73
2023/06/02 00:44:24;;;;;;;337.33;171.50;;;;;;;19.36;83.60;99369.59;295956;33;5214;-73
2023/06/02 00:44:35;;;;;;;332.90;168.38;;;;;;;19.36;83.40;99366.94;296928;33;1146;-73
2023/06/02 00:44:45;;;;;;;330.67;167.70;;;;;;;19.34;83.90;99363.56;290868;33;5900;-73
2023/06/02 00:44:55;;;;;;;332.83;168.37;;;;;;;19.35;83.83;99365.25;289134;33;5814;-73
2023/06/02 00:45:07;;;;;;;335.15;169.43;;;;;;;19.35;84.05;99367.06;291460;33;1825;-73
2023/06/02 00:45:17;;;;;;;332.55;167.40;;;;;;;19.34;83.69;99363.56;289060;34;1255;-73
2023/06/02 00:45:27;;;;;;;330.17;166.03;;;;;;;19.33;83.92;99367.19;289335;33;6763;-74
2023/06/02 00:45:38;;;;;;;330.02;164.93;;;;;;;19.34;84.04;99371.53;289594;33;6553;-74
2023/06/02 00:45:48;;;;;;;331.30;165.70;;;;;;;19.34;84.10;99358.28;289166;34;883;-74
2023/06/02 00:45:59;;;;;;;330.50;165.18;;;;;;;19.34;84.07;99362.72;290125;33;4905;-74
2023/06/02 00:46:09;;;;;;;330.63;164.57;;;;;;;19.33;84.02;99359.25;289086;33;5202;-74
2023/06/02 00:46:20;;;;;;;332.25;165.80;;;;;;;19.35;84.32;99364.41;288229;34;1404;-74
2023/06/02 00:46:30;;;;;;;332.53;166.93;;;;;;;19.35;83.98;99365.25;292101;33;5934;-74
2023/06/02 00:46:40;;;;;;;330.27;166.97;;;;;;;19.37;83.96;99368.63;291342;33;6910;-74
2023/06/02 00:46:51;;;;;;;326.57;165.30;;;;;;;19.34;83.83;99360.94;290025;34;1416;-74
2023/06/02 00:47:02;;;;;;;326.92;166.23;;;;;;;19.36;84.02;99368.75;288159;34;1521;-74
2023/06/02 00:47:12;;;;;;;327.37;166.40;;;;;;;19.36;83.69;99369.59;288420;34;8260;-74
2023/06/02 00:47:23;;;;;;;328.92;165.98;;;;;;;19.37;83.73;99370.44;285576;33;8050;-74
2023/06/02 00:47:33;;;;;;;330.13;165.93;;;;;;;19.37;83.94;99365.13;288508;34;1565;-74
2023/06/02 00:47:44;;;;;;;336.85;168.40;;;;;;;19.35;84.32;99365.25;288540;34;8966;-74
2023/06/02 00:47:55;;;;;;;338.00;170.10;;;;;;;19.34;84.34;99368.88;288628;34;8802;-74
2023/06/02 00:48:05;;;;;;;336.63;167.20;;;;;;;19.34;84.44;99362.72;290246;34;820;-74
2023/06/02 00:48:16;;;;;;;334.57;166.63;;;;;;;19.33;84.83;99369.84;288674;34;7104;-74
2023/06/02 00:48:26;;;;;;;334.23;166.20;;;;;;;19.34;84.20;99366.22;284453;34;7127;-74
2023/06/02 00:50:45;;;;;;;327.27;163.29;;;;;;;19.32;84.47;99365.50;2491781;27;20793;-74
2023/06/02 00:50:56;;;;;;;334.80;173.67;;;;;;;19.31;84.57;99371.78;351404;28;974;-73
2023/06/02 00:51:06;;;;;;;330.40;173.63;;;;;;;19.31;84.78;99368.28;348734;28;1343;-73
2023/06/02 00:51:17;;;;;;;334.83;175.27;;;;;;;19.31;84.88;99371.78;348807;28;1325;-73
2023/06/02 00:51:27;;;;;;;334.90;172.53;;;;;;;19.30;84.51;99367.44;348854;28;1225;-73
2023/06/02 00:51:38;;;;;;;335.73;169.18;;;;;;;19.31;84.51;99369.13;348781;28;1327;-73
2023/06/02 00:51:48;;;;;;;333.60;165.73;;;;;;;19.31;84.57;99371.78;347575;28;1597;-73
2023/06/02 00:51:59;;;;;;;332.67;164.80;;;;;;;19.32;84.62;99373.47;350087;28;1286;-73
2023/06/02 00:52:09;;;;;;;332.87;165.03;;;;;;;19.32;84.78;99362.84;349137;28;1360;-73
2023/06/02 00:52:19;;;;;;;332.90;165.90;;;;;;;19.30;84.99;99364.78;348664;28;959;-73
2023/06/02 00:52:31;;;;;;;333.43;166.63;;;;;;;19.31;84.71;99371.78;348755;28;1323;-73
2023/06/02 00:52:41;;;;;;;332.73;166.50;;;;;;;19.31;84.96;99366.47;348239;28;1542;-73
2023/06/02 00:52:52;;;;;;;332.25;164.73;;;;;;;19.30;84.50;99374.56;347365;28;847;-73
2023/06/02 00:53:02;;;;;;;332.85;164.48;;;;;;;19.30;84.60;99367.44;346146;28;899;-73
2023/06/02 00:53:13;;;;;;;331.40;163.77;;;;;;;19.30;84.90;99372.75;347129;28;939;-73
2023/06/02 00:53:23;;;;;;;330.45;164.50;;;;;;;19.31;84.64;99366.47;348774;28;1330;-73
2023/06/02 00:53:34;;;;;;;330.57;164.73;;;;;;;19.30;84.99;99370.09;349581;28;1273;-73
2023/06/02 00:53:44;;;;;;;329.40;164.23;;;;;;;19.31;84.96;99365.63;347248;28;1378;-73
2023/06/02 00:53:55;;;;;;;331.87;165.13;;;;;;;19.31;84.83;99377.09;346009;28;883;-73
2023/06/02 00:54:06;;;;;;;335.10;165.40;;;;;;;19.30;84.70;99369.25;344820;28;871;-73
2023/06/02 00:54:17;;;;;;;335.33;166.43;;;;;;;19.31;85.07;99374.44;346082;28;891;-73
2023/06/02 00:54:28;;;;;;;332.08;165.48;;;;;;;19.30;84.92;99366.59;347334;28;1141;-73
2023/06/02 00:54:39;;;;;;;329.63;165.07;;;;;;;19.31;85.16;99371.78;348509;28;1147;-73